createdAt,value
2022-07-25T00:00:27.477Z,5.13
2022-07-25T00:02:54.763Z,5.10
2022-07-25T00:05:22.301Z,7.32
2022-07-25T00:07:50.194Z,14.55
2022-07-25T00:10:17.573Z,11.55
2022-07-25T00:12:45.003Z,7.50
2022-07-25T00:15:12.789Z,5.57
2022-07-25T00:17:40.140Z,10.32
2022-07-25T00:20:08.011Z,6.07
2022-07-25T00:22:35.471Z,6.72
2022-07-25T00:25:02.741Z,8.50
2022-07-25T00:27:30.159Z,8.10
2022-07-25T00:29:57.642Z,8.45
2022-07-25T00:32:25.002Z,7.43
2022-07-25T00:34:52.359Z,11.93
2022-07-25T00:37:19.626Z,5.85
2022-07-25T00:39:46.966Z,9.77
2022-07-25T00:42:14.250Z,6.65
2022-07-25T00:44:41.611Z,9.52
2022-07-25T00:47:08.887Z,6.40
2022-07-25T00:49:36.193Z,10.23
2022-07-25T00:52:03.656Z,7.88
2022-07-25T00:54:30.969Z,7.20
2022-07-25T00:56:58.324Z,10.50
2022-07-25T00:59:25.570Z,6.95
2022-07-25T01:01:52.959Z,8.60
2022-07-25T01:04:20.681Z,9.30
2022-07-25T01:06:48.022Z,7.38
2022-07-25T01:09:15.442Z,8.20
2022-07-25T01:11:42.890Z,10.68
2022-07-25T01:14:10.255Z,9.68
2022-07-25T01:16:37.711Z,15.15
2022-07-25T01:19:05.115Z,12.15
2022-07-25T01:21:32.384Z,10.15
2022-07-25T01:23:59.694Z,8.63
2022-07-25T01:26:27.025Z,7.90
2022-07-25T01:28:54.964Z,8.23
2022-07-25T01:31:22.315Z,12.05
2022-07-25T01:33:49.669Z,11.73
2022-07-25T01:36:16.974Z,10.85
2022-07-25T01:38:44.283Z,12.38
2022-07-25T01:41:11.647Z,10.68
2022-07-25T01:43:49.819Z,13.85
2022-07-25T01:46:17.152Z,8.10
2022-07-25T01:48:44.593Z,12.82
2022-07-25T01:51:11.992Z,14.45
2022-07-25T01:53:39.270Z,12.15
2022-07-25T01:56:08.287Z,11.57
2022-07-25T01:58:37.413Z,12.07
2022-07-25T02:01:04.973Z,12.95
2022-07-25T02:03:32.518Z,9.95
2022-07-25T02:06:04.361Z,11.88
2022-07-25T02:08:31.972Z,14.52
2022-07-25T02:11:00.501Z,12.18
2022-07-25T02:13:27.855Z,11.60
2022-07-25T02:15:55.226Z,15.50
2022-07-25T02:18:22.614Z,11.30
2022-07-25T02:20:49.881Z,12.27
2022-07-25T02:23:17.209Z,15.80
2022-07-25T02:25:44.550Z,14.05
2022-07-25T02:28:11.849Z,14.15
2022-07-25T02:30:39.447Z,9.77
2022-07-25T02:33:06.759Z,12.77
2022-07-25T02:35:34.075Z,15.02
2022-07-25T02:38:01.481Z,13.43
2022-07-25T02:40:28.848Z,24.48
2022-07-25T02:42:56.116Z,18.80
2022-07-25T02:45:23.452Z,17.77
2022-07-25T02:47:50.902Z,11.93
2022-07-25T02:50:18.248Z,9.32
2022-07-25T02:52:45.538Z,16.40
2022-07-25T02:55:12.945Z,9.82
2022-07-25T02:57:40.211Z,13.73
2022-07-25T03:00:08.148Z,10.80
2022-07-25T03:02:35.517Z,17.05
2022-07-25T03:05:04.172Z,11.65
2022-07-25T03:07:31.408Z,9.10
2022-07-25T03:09:58.671Z,11.05
2022-07-25T03:12:25.991Z,13.57
2022-07-25T03:14:53.283Z,12.23
2022-07-25T03:17:20.558Z,13.60
2022-07-25T03:19:47.837Z,14.07
2022-07-25T03:22:15.086Z,11.10
2022-07-25T03:24:42.373Z,16.90
2022-07-25T03:27:09.775Z,13.43
2022-07-25T03:29:37.042Z,10.18
2022-07-25T03:32:04.747Z,16.95
2022-07-25T03:34:32.168Z,14.27
2022-07-25T03:37:00.323Z,12.43
2022-07-25T03:39:28.307Z,10.32
2022-07-25T03:41:55.945Z,10.32
2022-07-25T03:44:24.049Z,10.43
2022-07-25T03:46:51.413Z,14.77
2022-07-25T03:49:18.918Z,12.63
2022-07-25T03:51:46.327Z,19.85
2022-07-25T03:54:13.800Z,14.02
2022-07-25T03:56:43.606Z,17.23
2022-07-25T03:59:12.598Z,21.60
2022-07-25T04:01:40.112Z,16.63
2022-07-25T04:04:07.972Z,17.05
2022-07-25T04:06:35.635Z,18.52
2022-07-25T04:09:03.206Z,23.55
2022-07-25T04:11:31.023Z,12.75
2022-07-25T04:13:58.815Z,24.73
2022-07-25T04:16:27.799Z,15.30
2022-07-25T04:18:56.267Z,13.85
2022-07-25T04:21:24.847Z,14.20
2022-07-25T04:23:52.458Z,13.25
2022-07-25T04:26:19.850Z,17.70
2022-07-25T04:28:47.213Z,16.00
2022-07-25T04:31:15.037Z,18.80
2022-07-25T04:33:43.005Z,13.30
2022-07-25T04:36:10.415Z,12.13
2022-07-25T04:38:37.664Z,16.10
2022-07-25T04:41:05.414Z,13.00
2022-07-25T04:43:32.656Z,12.38
2022-07-25T04:46:00.059Z,19.95
2022-07-25T04:48:27.777Z,15.30
2022-07-25T04:50:55.094Z,21.02
2022-07-25T04:53:22.378Z,16.35
2022-07-25T04:55:49.771Z,15.32
2022-07-25T04:58:17.106Z,17.33
2022-07-25T05:00:44.642Z,12.13
2022-07-25T05:03:12.106Z,16.15
2022-07-25T05:05:39.472Z,11.23
2022-07-25T05:08:06.703Z,15.75
2022-07-25T05:10:33.991Z,10.93
2022-07-25T05:13:01.285Z,14.43
2022-07-25T05:15:28.584Z,13.75
2022-07-25T05:17:55.879Z,13.30
2022-07-25T05:20:23.235Z,14.63
2022-07-25T05:22:50.621Z,15.25
2022-07-25T05:25:17.955Z,13.80
2022-07-25T05:27:45.305Z,16.00
2022-07-25T05:30:13.190Z,14.32
2022-07-25T05:32:40.574Z,15.43
2022-07-25T05:35:08.585Z,17.88
2022-07-25T05:37:37.496Z,17.05
2022-07-25T05:40:05.763Z,19.77
2022-07-25T05:42:33.081Z,19.90
2022-07-25T05:45:00.737Z,12.63
2022-07-25T05:47:28.109Z,18.23
2022-07-25T05:49:55.473Z,18.42
2022-07-25T05:52:22.901Z,25.58
2022-07-25T05:54:50.737Z,13.48
2022-07-25T05:57:18.023Z,24.02
2022-07-25T05:59:45.336Z,11.85
2022-07-25T06:02:12.805Z,14.40
2022-07-25T06:04:40.185Z,16.02
2022-07-25T06:07:07.459Z,12.50
2022-07-25T06:09:35.746Z,11.95
2022-07-25T06:12:03.050Z,18.65
2022-07-25T06:14:31.580Z,11.63
2022-07-25T06:16:58.882Z,14.77
2022-07-25T06:19:26.269Z,11.55
2022-07-25T06:21:53.533Z,14.50
2022-07-25T06:24:20.823Z,16.98
2022-07-25T06:26:48.134Z,18.10
2022-07-25T06:29:15.458Z,12.55
2022-07-25T06:31:42.884Z,16.50
2022-07-25T06:34:14.616Z,13.95
2022-07-25T06:36:41.919Z,13.82
2022-07-25T06:39:09.348Z,16.10
2022-07-25T06:41:37.678Z,12.13
2022-07-25T06:44:05.305Z,12.40
2022-07-25T06:46:33.070Z,14.52
2022-07-25T06:49:00.498Z,14.60
2022-07-25T06:51:27.849Z,16.85
2022-07-25T06:53:55.242Z,9.50
2022-07-25T06:56:22.536Z,15.10
2022-07-25T06:58:50.030Z,8.23
2022-07-25T07:01:17.336Z,12.30
2022-07-25T07:03:44.895Z,10.27
2022-07-25T07:06:12.218Z,9.18
2022-07-25T07:08:39.551Z,8.82
2022-07-25T07:11:07.728Z,8.30
2022-07-25T07:13:35.492Z,13.77
2022-07-25T07:16:03.655Z,6.88
2022-07-25T07:18:31.120Z,10.38
2022-07-25T07:20:58.370Z,6.50
2022-07-25T07:23:25.652Z,9.55
2022-07-25T07:25:56.792Z,4.60
2022-07-25T07:28:24.241Z,8.02
2022-07-25T07:31:15.281Z,5.50
2022-07-25T07:33:38.887Z,6.55
2022-07-25T07:36:06.268Z,3.65
2022-07-25T07:38:33.537Z,3.63
2022-07-25T07:41:00.827Z,3.00
2022-07-25T07:43:30.488Z,4.90
2022-07-25T07:46:01.472Z,4.63
2022-07-25T07:48:32.759Z,9.65
2022-07-25T07:51:00.867Z,3.53
2022-07-25T07:53:46.756Z,4.30
2022-07-25T07:56:14.491Z,1.83
2022-07-25T07:58:41.757Z,6.80
2022-07-25T08:01:09.095Z,3.85
2022-07-25T08:03:36.357Z,10.60
2022-07-25T08:06:03.805Z,2.30
2022-07-25T08:08:32.297Z,1.90
2022-07-25T08:11:00.011Z,1.90
2022-07-25T08:13:30.308Z,1.80
2022-07-25T08:15:59.383Z,1.77
2022-07-25T08:18:27.290Z,6.38
2022-07-25T08:20:54.673Z,4.95
2022-07-25T08:23:22.572Z,1.67
2022-07-25T08:25:50.001Z,1.90
2022-07-25T08:28:17.293Z,4.72
2022-07-25T08:30:44.626Z,6.45
2022-07-25T08:33:13.548Z,6.50
2022-07-25T08:35:42.033Z,10.10
2022-07-25T08:38:11.676Z,2.72
2022-07-25T08:40:39.293Z,3.75
2022-07-25T08:43:06.686Z,5.30
2022-07-25T08:45:34.456Z,1.67
2022-07-25T08:48:01.724Z,4.03
2022-07-25T08:50:30.208Z,2.53
2022-07-25T08:53:23.058Z,4.47
2022-07-25T08:55:45.852Z,6.63
2022-07-25T08:58:14.345Z,6.82
2022-07-25T09:00:42.183Z,11.35
2022-07-25T09:03:11.050Z,6.22
2022-07-25T09:05:38.685Z,6.95
2022-07-25T09:08:17.517Z,4.32
2022-07-25T09:10:51.886Z,8.98
2022-07-25T09:13:19.786Z,3.78
2022-07-25T09:15:51.724Z,7.38
2022-07-25T09:18:23.679Z,5.22
2022-07-25T09:20:53.282Z,4.63
2022-07-25T09:23:36.012Z,3.88
2022-07-25T09:26:03.620Z,5.22
2022-07-25T09:28:30.991Z,3.17
2022-07-25T09:30:59.589Z,3.13
2022-07-25T09:33:28.262Z,2.97
2022-07-25T09:35:56.255Z,3.85
2022-07-25T09:38:24.187Z,10.13
2022-07-25T09:41:09.590Z,4.15
2022-07-25T09:43:37.765Z,2.00
2022-07-25T09:46:05.776Z,3.97
2022-07-25T09:48:33.386Z,4.65
2022-07-25T09:51:01.094Z,3.78
2022-07-25T09:53:29.364Z,3.85
2022-07-25T09:55:57.541Z,2.38
2022-07-25T09:58:25.436Z,6.15
2022-07-25T10:00:54.806Z,7.07
2022-07-25T10:03:30.374Z,5.97
2022-07-25T10:06:04.760Z,4.82
2022-07-25T10:08:36.342Z,4.40
2022-07-25T10:11:05.289Z,4.63
2022-07-25T10:13:34.744Z,6.05
2022-07-25T10:16:02.568Z,6.20
2022-07-25T10:18:30.993Z,6.10
2022-07-25T10:21:28.689Z,5.60
2022-07-25T10:23:59.332Z,4.38
2022-07-25T10:26:26.676Z,11.50
2022-07-25T10:28:55.934Z,6.80
2022-07-25T10:31:23.338Z,6.80
2022-07-25T10:34:11.074Z,8.57
2022-07-25T10:36:49.483Z,4.18
2022-07-25T10:39:17.275Z,5.80
2022-07-25T10:41:45.523Z,8.40
2022-07-25T10:44:14.311Z,11.82
2022-07-25T10:46:44.629Z,6.55
2022-07-25T10:49:19.750Z,4.55
2022-07-25T10:52:17.478Z,7.32
2022-07-25T10:55:02.906Z,9.63
2022-07-25T10:57:32.159Z,12.13
2022-07-25T11:00:06.581Z,6.50
2022-07-25T11:02:33.951Z,4.20
2022-07-25T11:05:05.148Z,5.88
2022-07-25T11:07:38.383Z,7.25
2022-07-25T11:10:06.253Z,3.05
2022-07-25T11:12:33.640Z,5.63
2022-07-25T11:15:02.117Z,7.05
2022-07-25T11:17:29.853Z,3.97
2022-07-25T11:19:57.173Z,8.50
2022-07-25T11:22:25.276Z,8.15
2022-07-25T11:24:52.698Z,3.55
2022-07-25T11:27:25.573Z,7.03
2022-07-25T11:29:52.888Z,8.70
2022-07-25T11:32:20.445Z,13.63
2022-07-25T11:34:49.189Z,5.82
2022-07-25T11:37:18.778Z,7.85
2022-07-25T11:39:47.056Z,10.43
2022-07-25T11:42:16.473Z,8.35
2022-07-25T11:44:48.906Z,7.45
2022-07-25T11:47:25.418Z,7.30
2022-07-25T11:49:53.081Z,9.82
2022-07-25T11:52:24.816Z,7.05
2022-07-25T11:54:56.035Z,9.75
2022-07-25T11:57:27.694Z,6.20
2022-07-25T11:59:55.439Z,6.90
2022-07-25T12:02:27.334Z,10.65
2022-07-25T12:04:59.615Z,11.13
2022-07-25T12:07:42.251Z,14.35
2022-07-25T12:10:14.229Z,8.27
2022-07-25T12:12:42.387Z,12.95
2022-07-25T12:15:16.975Z,13.88
2022-07-25T12:17:44.382Z,8.18
2022-07-25T12:20:14.506Z,7.50
2022-07-25T12:22:41.883Z,6.97
2022-07-25T12:25:09.502Z,8.40
2022-07-25T12:27:36.873Z,10.43
2022-07-25T12:30:05.077Z,7.05
2022-07-25T12:32:32.608Z,15.07
2022-07-25T12:35:00.394Z,13.18
2022-07-25T12:37:27.710Z,16.35
2022-07-25T12:39:55.593Z,8.90
2022-07-25T12:42:22.853Z,8.48
2022-07-25T12:44:50.146Z,11.68
2022-07-25T12:47:17.498Z,8.73
2022-07-25T12:49:44.811Z,8.45
2022-07-25T12:52:12.257Z,14.13
2022-07-25T12:54:39.557Z,13.40
2022-07-25T12:57:06.903Z,10.32
2022-07-25T12:59:34.221Z,15.35
2022-07-25T13:02:01.694Z,9.43
2022-07-25T13:04:29.210Z,7.97
2022-07-25T13:06:56.978Z,8.20
2022-07-25T13:09:24.620Z,7.63
2022-07-25T13:11:52.306Z,5.45
2022-07-25T13:14:19.882Z,7.68
2022-07-25T13:16:48.054Z,13.15
2022-07-25T13:19:15.881Z,5.82
2022-07-25T13:21:43.563Z,5.20
2022-07-25T13:24:11.430Z,9.23
2022-07-25T13:26:39.387Z,9.93
2022-07-25T13:29:09.555Z,17.67
2022-07-25T13:31:37.728Z,10.93
2022-07-25T13:34:05.212Z,8.45
2022-07-25T13:36:33.522Z,9.35
2022-07-25T13:39:01.182Z,7.38
2022-07-25T13:41:28.657Z,7.70
2022-07-25T13:43:56.265Z,7.20
2022-07-25T13:46:24.030Z,17.17
2022-07-25T13:48:51.509Z,9.30
2022-07-25T13:51:18.895Z,9.52
2022-07-25T13:53:46.232Z,12.85
2022-07-25T13:56:13.737Z,11.15
2022-07-25T13:58:41.536Z,14.73
2022-07-25T14:01:09.666Z,15.68
2022-07-25T14:03:37.054Z,22.45
2022-07-25T14:06:11.151Z,13.77
2022-07-25T14:08:43.381Z,8.25
2022-07-25T14:11:10.783Z,17.92
2022-07-25T14:13:38.134Z,7.90
2022-07-25T14:16:05.630Z,9.93
2022-07-25T14:18:33.006Z,37.22
2022-07-25T14:21:00.376Z,4.82
2022-07-25T14:23:30.093Z,11.10
2022-07-25T14:25:58.612Z,10.68
2022-07-25T14:28:26.247Z,12.45
2022-07-25T14:30:53.581Z,11.23
2022-07-25T14:33:20.879Z,7.25
2022-07-25T14:35:48.156Z,9.95
2022-07-25T14:38:15.467Z,14.30
2022-07-25T14:40:43.178Z,12.80
2022-07-25T14:43:10.509Z,16.23
2022-07-25T14:45:37.901Z,12.65
2022-07-25T14:48:08.269Z,8.63
2022-07-25T14:50:35.574Z,14.85
2022-07-25T14:53:02.860Z,12.27
2022-07-25T14:55:30.171Z,4.28
2022-07-25T14:58:02.311Z,10.93
2022-07-25T15:00:30.018Z,5.47
2022-07-25T15:02:57.561Z,3.80
2022-07-25T15:05:24.830Z,9.57
2022-07-25T15:07:52.173Z,3.15
2022-07-25T15:10:19.516Z,6.20
2022-07-25T15:12:46.774Z,6.20
2022-07-25T15:15:14.047Z,7.47
2022-07-25T15:17:41.379Z,4.68
2022-07-25T15:20:09.069Z,6.35
2022-07-25T15:22:36.502Z,7.07
2022-07-25T15:27:52.990Z,3.25
2022-07-25T15:30:20.903Z,4.82
2022-07-25T15:32:50.052Z,4.47
2022-07-25T15:35:17.408Z,9.15
2022-07-25T15:37:44.816Z,4.72
2022-07-25T15:40:12.600Z,3.90
2022-07-25T15:42:40.153Z,3.50
2022-07-25T15:47:56.597Z,3.28
2022-07-25T15:50:24.138Z,5.15
2022-07-25T15:52:51.614Z,7.00
2022-07-25T15:55:18.898Z,3.63
2022-07-25T15:57:46.167Z,8.10
2022-07-25T16:00:13.776Z,5.00
2022-07-25T16:02:41.141Z,3.95
2022-07-25T16:05:08.571Z,6.03
2022-07-25T16:07:35.907Z,4.47
2022-07-25T16:10:03.217Z,6.47
2022-07-25T16:12:30.586Z,8.27
2022-07-25T16:14:57.894Z,5.03
2022-07-25T16:17:28.105Z,5.45
2022-07-25T16:19:56.005Z,12.43
2022-07-25T16:22:23.305Z,4.32
2022-07-25T16:24:50.970Z,3.30
2022-07-25T16:27:18.367Z,6.15
2022-07-25T16:29:45.718Z,12.40
2022-07-25T16:32:13.057Z,9.95
2022-07-25T16:34:40.453Z,4.78
2022-07-25T16:37:07.778Z,6.15
2022-07-25T16:39:35.031Z,8.60
2022-07-25T16:42:02.306Z,8.15
2022-07-25T16:44:29.582Z,7.30
2022-07-25T16:46:56.996Z,8.65
2022-07-25T16:49:24.426Z,4.65
2022-07-25T16:51:52.753Z,5.53
2022-07-25T16:54:23.840Z,6.85
2022-07-25T16:56:53.739Z,5.22
2022-07-25T16:59:22.907Z,7.50
2022-07-25T17:01:50.273Z,9.63
2022-07-25T17:04:17.811Z,7.78
2022-07-25T17:06:45.281Z,9.45
2022-07-25T17:09:12.538Z,7.72
2022-07-25T17:11:39.793Z,12.57
2022-07-25T17:14:07.085Z,9.63
2022-07-25T17:16:34.454Z,8.05
2022-07-25T17:19:02.588Z,20.20
2022-07-25T17:21:29.909Z,7.38
2022-07-25T17:23:57.207Z,9.68
2022-07-25T17:26:24.475Z,9.90
2022-07-25T17:28:52.141Z,12.00
2022-07-25T17:31:19.493Z,6.50
2022-07-25T17:33:46.840Z,14.65
2022-07-25T17:36:14.348Z,5.75
2022-07-25T17:38:42.057Z,10.00
2022-07-25T17:41:09.410Z,5.88
2022-07-25T17:43:36.959Z,8.05
2022-07-25T17:46:04.245Z,7.78
2022-07-25T17:48:31.697Z,6.80
2022-07-25T17:50:59.063Z,16.75
2022-07-25T17:53:26.399Z,9.10
2022-07-25T17:55:53.648Z,17.10
2022-07-25T17:58:20.945Z,17.73
2022-07-25T18:00:48.777Z,8.68
2022-07-25T18:03:16.352Z,11.38
2022-07-25T18:05:44.287Z,14.70
2022-07-25T18:08:11.609Z,11.88
2022-07-25T18:10:38.902Z,13.32
2022-07-25T18:13:06.262Z,8.57
2022-07-25T18:15:33.682Z,10.25
2022-07-25T18:18:01.049Z,11.40
2022-07-25T18:20:28.460Z,12.60
2022-07-25T18:22:55.761Z,6.80
2022-07-25T18:25:23.046Z,9.52
2022-07-25T18:27:50.748Z,10.50
2022-07-25T18:30:18.166Z,6.25
2022-07-25T18:32:45.877Z,13.55
2022-07-25T18:35:13.782Z,9.65
2022-07-25T18:37:41.132Z,6.45
2022-07-25T18:40:08.848Z,8.57
2022-07-25T18:42:36.258Z,3.45
2022-07-25T18:45:04.114Z,5.93
2022-07-25T18:47:34.817Z,7.07
2022-07-25T18:50:02.436Z,7.18
2022-07-25T18:52:34.708Z,5.70
2022-07-25T18:55:03.044Z,4.80
2022-07-25T18:57:30.441Z,5.88
2022-07-25T19:00:02.602Z,4.22
2022-07-25T19:02:30.673Z,6.47
2022-07-25T19:04:58.125Z,3.20
2022-07-25T19:07:26.062Z,4.90
2022-07-25T19:09:53.321Z,6.60
2022-07-25T19:12:20.607Z,9.23
2022-07-25T19:14:47.919Z,9.05
2022-07-25T19:17:15.204Z,4.03
2022-07-25T19:19:42.578Z,5.53
2022-07-25T19:22:09.943Z,7.32
2022-07-25T19:24:37.209Z,11.32
2022-07-25T19:27:05.193Z,4.80
2022-07-25T19:29:32.495Z,9.50
2022-07-25T19:31:59.860Z,8.75
2022-07-25T19:34:27.140Z,10.00
2022-07-25T19:36:55.697Z,9.02
2022-07-25T19:39:24.643Z,12.77
2022-07-25T19:41:55.043Z,6.75
2022-07-25T19:44:22.352Z,9.15
2022-07-25T19:46:49.716Z,8.32
2022-07-25T19:49:17.225Z,12.02
2022-07-25T19:51:44.624Z,13.88
2022-07-25T19:54:12.177Z,9.43
2022-07-25T19:56:39.529Z,11.98
2022-07-25T19:59:06.803Z,14.00
2022-07-25T20:01:39.303Z,10.38
2022-07-25T20:04:09.047Z,10.65
2022-07-25T20:06:36.867Z,11.63
2022-07-25T20:09:04.506Z,8.70
2022-07-25T20:11:32.210Z,10.75
2022-07-25T20:13:59.515Z,11.45
2022-07-25T20:16:26.866Z,9.27
2022-07-25T20:18:54.184Z,13.10
2022-07-25T20:21:21.512Z,8.50
2022-07-25T20:23:49.024Z,14.27
2022-07-25T20:26:16.294Z,12.65
2022-07-25T20:28:43.826Z,14.95
2022-07-25T20:31:11.191Z,8.18
2022-07-25T20:33:38.567Z,13.32
2022-07-25T20:36:06.190Z,7.78
2022-07-25T20:38:33.686Z,12.70
2022-07-25T20:41:01.230Z,11.82
2022-07-25T20:43:28.889Z,14.15
2022-07-25T20:45:56.377Z,12.38
2022-07-25T20:48:24.151Z,12.32
2022-07-25T20:50:51.461Z,15.80
2022-07-25T20:53:19.769Z,12.30
2022-07-25T20:55:47.020Z,23.45
2022-07-25T20:58:14.242Z,11.88
2022-07-25T21:00:41.720Z,15.38
2022-07-25T21:03:09.093Z,16.42
2022-07-25T21:05:37.811Z,12.55
2022-07-25T21:08:05.777Z,12.38
2022-07-25T21:10:33.173Z,18.85
2022-07-25T21:13:00.432Z,15.32
2022-07-25T21:15:27.686Z,14.07
2022-07-25T21:17:54.982Z,13.30
2022-07-25T21:20:22.385Z,19.58
2022-07-25T21:22:49.787Z,17.55
2022-07-25T21:25:17.125Z,13.98
2022-07-25T21:27:44.510Z,17.27
2022-07-25T21:30:11.960Z,15.52
2022-07-25T21:32:40.539Z,15.95
2022-07-25T21:35:08.063Z,12.18
2022-07-25T21:37:35.371Z,14.18
2022-07-25T21:40:02.840Z,13.07
2022-07-25T21:42:30.317Z,14.68
2022-07-25T21:44:57.666Z,14.57
2022-07-25T21:47:25.144Z,15.05
2022-07-25T21:50:11.010Z,20.05
2022-07-25T21:52:40.738Z,14.27
2022-07-25T21:55:08.541Z,17.02
2022-07-25T21:57:35.812Z,24.15
2022-07-25T22:00:03.207Z,19.08
2022-07-25T22:02:43.329Z,17.92
2022-07-25T22:05:11.115Z,22.00
2022-07-25T22:07:39.239Z,14.55
2022-07-25T22:10:07.808Z,19.10
2022-07-25T22:12:35.089Z,12.75
2022-07-25T22:15:02.410Z,9.88
2022-07-25T22:17:48.525Z,18.50
2022-07-25T22:20:16.901Z,15.40
2022-07-25T22:22:44.182Z,17.30
2022-07-25T22:25:11.514Z,16.98
2022-07-25T22:27:38.888Z,13.02
2022-07-25T22:30:06.606Z,18.95
2022-07-25T22:32:33.888Z,18.75
2022-07-25T22:35:01.244Z,19.08
2022-07-25T22:37:32.814Z,24.27
2022-07-25T22:40:01.361Z,26.65
2022-07-25T22:42:28.939Z,21.63
2022-07-25T22:44:56.249Z,16.65
2022-07-25T22:47:23.499Z,17.20
2022-07-25T22:49:50.767Z,25.23
2022-07-25T22:52:18.018Z,31.63
2022-07-25T22:54:45.448Z,21.70
2022-07-25T22:57:12.748Z,21.23
2022-07-25T22:59:40.305Z,13.50
2022-07-25T23:02:07.616Z,24.52
2022-07-25T23:04:35.043Z,18.38
2022-07-25T23:07:02.453Z,23.77
2022-07-25T23:09:33.737Z,19.92
2022-07-25T23:12:04.438Z,19.85
2022-07-25T23:14:31.767Z,25.42
2022-07-25T23:17:17.282Z,26.55
2022-07-25T23:19:45.057Z,16.20
2022-07-25T23:22:12.614Z,19.15
2022-07-25T23:24:39.912Z,15.52
2022-07-25T23:27:07.527Z,19.10
2022-07-25T23:29:34.906Z,21.15
2022-07-25T23:32:02.329Z,18.70
2022-07-25T23:34:29.756Z,29.08
2022-07-25T23:36:57.248Z,29.55
2022-07-25T23:39:24.609Z,19.65
2022-07-25T23:41:52.033Z,23.73
2022-07-25T23:44:19.382Z,19.58
2022-07-25T23:46:47.137Z,20.25
2022-07-25T23:49:14.672Z,18.33
2022-07-25T23:51:42.122Z,21.02
2022-07-25T23:54:09.496Z,25.40
2022-07-25T23:56:36.859Z,21.90
2022-07-25T23:59:04.436Z,22.90
